sensor_id;sensor_type;location;lat;lon;timestamp;pressure;altitude;pressure_sealevel;temperature;humidity
5651;BME280;40241;52.684;9.758;2022-12-29T00:02:09;100035.41;;;11.55;72.92
5651;BME280;40241;52.684;9.758;2022-12-29T00:04:34;100031.13;;;11.60;72.90
5651;BME280;40241;52.684;9.758;2022-12-29T00:07:00;100027.84;;;11.61;72.83
5651;BME280;40241;52.684;9.758;2022-12-29T00:09:26;100025.84;;;11.62;73.04
5651;BME280;40241;52.684;9.758;2022-12-29T00:11:51;100028.56;;;11.67;73.03
5651;BME280;40241;52.684;9.758;2022-12-29T00:14:17;100032.31;;;11.70;72.86
5651;BME280;40241;52.684;9.758;2022-12-29T00:17:01;100026.28;;;11.71;72.84
5651;BME280;40241;52.684;9.758;2022-12-29T00:19:27;100024.50;;;11.74;72.92
5651;BME280;40241;52.684;9.758;2022-12-29T00:22:12;100017.22;;;11.76;72.78
5651;BME280;40241;52.684;9.758;2022-12-29T00:24:56;100015.94;;;11.77;72.75
5651;BME280;40241;52.684;9.758;2022-12-29T00:27:26;100016.19;;;11.79;72.92
5651;BME280;40241;52.684;9.758;2022-12-29T00:30:12;100012.16;;;11.80;72.74
5651;BME280;40241;52.684;9.758;2022-12-29T00:32:56;100017.69;;;11.80;72.72
5651;BME280;40241;52.684;9.758;2022-12-29T00:36:04;100007.94;;;11.79;72.85
5651;BME280;40241;52.684;9.758;2022-12-29T00:38:32;100012.16;;;11.80;72.84
5651;BME280;40241;52.684;9.758;2022-12-29T00:41:17;100016.66;;;11.83;72.98
5651;BME280;40241;52.684;9.758;2022-12-29T00:44:01;100012.34;;;11.88;72.78
5651;BME280;40241;52.684;9.758;2022-12-29T00:46:33;100003.56;;;11.89;72.57
5651;BME280;40241;52.684;9.758;2022-12-29T00:48:59;100009.28;;;11.91;72.60
5651;BME280;40241;52.684;9.758;2022-12-29T00:51:43;100010.81;;;11.92;72.80
5651;BME280;40241;52.684;9.758;2022-12-29T00:54:09;100009.75;;;11.95;72.64
5651;BME280;40241;52.684;9.758;2022-12-29T00:56:34;100000.72;;;11.95;72.59
5651;BME280;40241;52.684;9.758;2022-12-29T00:59:04;100000.22;;;11.96;72.75
5651;BME280;40241;52.684;9.758;2022-12-29T01:01:29;99998.94;;;11.97;72.49
5651;BME280;40241;52.684;9.758;2022-12-29T01:03:55;99997.69;;;11.98;72.72
5651;BME280;40241;52.684;9.758;2022-12-29T01:06:20;99994.19;;;11.98;72.68
5651;BME280;40241;52.684;9.758;2022-12-29T01:08:45;99984.69;;;11.99;72.62
5651;BME280;40241;52.684;9.758;2022-12-29T01:11:12;99979.38;;;12.01;72.52
5651;BME280;40241;52.684;9.758;2022-12-29T01:13:38;99957.34;;;12.01;72.53
5651;BME280;40241;52.684;9.758;2022-12-29T01:16:06;99960.09;;;12.01;72.35
5651;BME280;40241;52.684;9.758;2022-12-29T01:18:32;99949.34;;;11.97;72.35
5651;BME280;40241;52.684;9.758;2022-12-29T01:21:02;99933.38;;;11.90;72.27
5651;BME280;40241;52.684;9.758;2022-12-29T01:23:28;99931.66;;;11.87;72.41
5651;BME280;40241;52.684;9.758;2022-12-29T01:25:54;99938.97;;;11.85;72.26
5651;BME280;40241;52.684;9.758;2022-12-29T01:28:20;99934.25;;;11.80;72.31
5651;BME280;40241;52.684;9.758;2022-12-29T01:30:45;99943.34;;;11.75;72.40
5651;BME280;40241;52.684;9.758;2022-12-29T01:33:11;99945.56;;;11.76;72.31
5651;BME280;40241;52.684;9.758;2022-12-29T01:35:36;99956.81;;;11.78;72.64
5651;BME280;40241;52.684;9.758;2022-12-29T01:38:01;99942.00;;;11.81;72.49
5651;BME280;40241;52.684;9.758;2022-12-29T01:40:27;99942.97;;;11.84;72.48
5651;BME280;40241;52.684;9.758;2022-12-29T01:42:53;99947.22;;;11.85;72.30
5651;BME280;40241;52.684;9.758;2022-12-29T01:45:19;99925.94;;;11.85;72.54
5651;BME280;40241;52.684;9.758;2022-12-29T01:47:48;99924.44;;;11.84;72.35
5651;BME280;40241;52.684;9.758;2022-12-29T01:53:12;99917.44;;;11.83;72.31
5651;BME280;40241;52.684;9.758;2022-12-29T01:55:43;99916.91;;;11.85;72.32
5651;BME280;40241;52.684;9.758;2022-12-29T01:58:10;99924.44;;;11.84;72.26
5651;BME280;40241;52.684;9.758;2022-12-29T02:00:37;99911.19;;;11.83;72.21
5651;BME280;40241;52.684;9.758;2022-12-29T02:03:04;99911.41;;;11.85;72.37
5651;BME280;40241;52.684;9.758;2022-12-29T02:05:38;99910.66;;;11.84;72.21
5651;BME280;40241;52.684;9.758;2022-12-29T02:08:05;99904.91;;;11.82;72.40
5651;BME280;40241;52.684;9.758;2022-12-29T02:10:32;99913.72;;;11.81;72.22
5651;BME280;40241;52.684;9.758;2022-12-29T02:12:59;99915.72;;;11.80;72.14
5651;BME280;40241;52.684;9.758;2022-12-29T02:18:37;99901.72;;;11.78;72.32
5651;BME280;40241;52.684;9.758;2022-12-29T02:24:04;99893.00;;;11.74;72.15
5651;BME280;40241;52.684;9.758;2022-12-29T02:30:08;99888.56;;;11.66;72.15
5651;BME280;40241;52.684;9.758;2022-12-29T02:35:28;99886.06;;;11.68;72.30
5651;BME280;40241;52.684;9.758;2022-12-29T02:40:42;99877.47;;;11.71;72.30
5651;BME280;40241;52.684;9.758;2022-12-29T02:43:24;99879.00;;;11.72;72.41
5651;BME280;40241;52.684;9.758;2022-12-29T02:45:57;99881.22;;;11.74;72.36
5651;BME280;40241;52.684;9.758;2022-12-29T02:48:34;99873.94;;;11.76;72.41
5651;BME280;40241;52.684;9.758;2022-12-29T02:51:24;99883.16;;;11.79;72.65
5651;BME280;40241;52.684;9.758;2022-12-29T02:53:52;99881.88;;;11.80;72.53
5651;BME280;40241;52.684;9.758;2022-12-29T02:56:36;99868.88;;;11.80;72.63
5651;BME280;40241;52.684;9.758;2022-12-29T02:59:02;99864.09;;;11.81;72.57
5651;BME280;40241;52.684;9.758;2022-12-29T03:04:23;99864.78;;;11.87;72.80
5651;BME280;40241;52.684;9.758;2022-12-29T03:07:12;99863.00;;;11.89;72.79
5651;BME280;40241;52.684;9.758;2022-12-29T03:09:53;99864.47;;;11.90;72.94
5651;BME280;40241;52.684;9.758;2022-12-29T03:12:30;99865.44;;;11.93;72.79
5651;BME280;40241;52.684;9.758;2022-12-29T03:15:32;99862.91;;;11.95;72.85
5651;BME280;40241;52.684;9.758;2022-12-29T03:18:22;99852.63;;;11.95;72.73
5651;BME280;40241;52.684;9.758;2022-12-29T03:20:53;99855.63;;;11.97;72.85
5651;BME280;40241;52.684;9.758;2022-12-29T03:23:21;99858.59;;;11.99;72.97
5651;BME280;40241;52.684;9.758;2022-12-29T03:25:51;99852.81;;;12.03;72.87
5651;BME280;40241;52.684;9.758;2022-12-29T03:28:22;99848.00;;;12.03;72.94
5651;BME280;40241;52.684;9.758;2022-12-29T03:30:49;99855.78;;;12.05;72.89
5651;BME280;40241;52.684;9.758;2022-12-29T03:33:18;99844.44;;;12.09;73.07
5651;BME280;40241;52.684;9.758;2022-12-29T03:35:47;99849.44;;;12.10;72.75
5651;BME280;40241;52.684;9.758;2022-12-29T03:38:22;99838.13;;;12.14;72.91
5651;BME280;40241;52.684;9.758;2022-12-29T03:40:54;99829.84;;;12.14;72.93
5651;BME280;40241;52.684;9.758;2022-12-29T03:43:21;99821.78;;;12.16;72.71
5651;BME280;40241;52.684;9.758;2022-12-29T03:45:46;99824.34;;;12.14;72.79
5651;BME280;40241;52.684;9.758;2022-12-29T03:48:12;99815.53;;;12.15;72.76
5651;BME280;40241;52.684;9.758;2022-12-29T03:50:37;99838.34;;;12.16;73.01
5651;BME280;40241;52.684;9.758;2022-12-29T03:53:03;99816.50;;;12.18;73.08
5651;BME280;40241;52.684;9.758;2022-12-29T03:55:28;99815.47;;;12.21;73.12
5651;BME280;40241;52.684;9.758;2022-12-29T03:57:53;99809.72;;;12.19;72.96
5651;BME280;40241;52.684;9.758;2022-12-29T04:00:19;99807.19;;;12.21;73.23
5651;BME280;40241;52.684;9.758;2022-12-29T04:02:44;99806.97;;;12.19;73.31
5651;BME280;40241;52.684;9.758;2022-12-29T04:05:10;99804.22;;;12.19;73.20
5651;BME280;40241;52.684;9.758;2022-12-29T04:07:35;99803.16;;;12.22;73.34
5651;BME280;40241;52.684;9.758;2022-12-29T04:10:00;99799.84;;;12.23;73.13
5651;BME280;40241;52.684;9.758;2022-12-29T04:12:26;99811.88;;;12.26;73.38
5651;BME280;40241;52.684;9.758;2022-12-29T04:14:51;99811.13;;;12.25;73.37
5651;BME280;40241;52.684;9.758;2022-12-29T04:17:16;99802.34;;;12.27;73.29
5651;BME280;40241;52.684;9.758;2022-12-29T04:19:42;99809.53;;;12.30;73.26
5651;BME280;40241;52.684;9.758;2022-12-29T04:22:10;99800.75;;;12.31;73.31
5651;BME280;40241;52.684;9.758;2022-12-29T04:24:36;99798.75;;;12.32;73.20
5651;BME280;40241;52.684;9.758;2022-12-29T04:27:02;99798.00;;;12.31;73.44
5651;BME280;40241;52.684;9.758;2022-12-29T04:29:27;99780.91;;;12.33;73.40
5651;BME280;40241;52.684;9.758;2022-12-29T04:31:53;99781.34;;;12.37;73.33
5651;BME280;40241;52.684;9.758;2022-12-29T04:34:18;99785.84;;;12.40;73.38
5651;BME280;40241;52.684;9.758;2022-12-29T04:36:44;99781.06;;;12.40;73.37
5651;BME280;40241;52.684;9.758;2022-12-29T04:39:09;99780.00;;;12.43;73.49
5651;BME280;40241;52.684;9.758;2022-12-29T04:41:34;99778.22;;;12.46;73.39
5651;BME280;40241;52.684;9.758;2022-12-29T04:44:00;99775.44;;;12.46;73.29
5651;BME280;40241;52.684;9.758;2022-12-29T04:46:25;99769.72;;;12.44;73.22
5651;BME280;40241;52.684;9.758;2022-12-29T04:48:51;99774.47;;;12.43;73.31
5651;BME280;40241;52.684;9.758;2022-12-29T04:51:16;99772.47;;;12.44;73.06
5651;BME280;40241;52.684;9.758;2022-12-29T04:53:41;99774.25;;;12.41;73.03
5651;BME280;40241;52.684;9.758;2022-12-29T04:56:07;99775.22;;;12.44;73.32
5651;BME280;40241;52.684;9.758;2022-12-29T04:58:34;99777.16;;;12.49;73.40
5651;BME280;40241;52.684;9.758;2022-12-29T05:01:00;99773.34;;;12.52;73.11
5651;BME280;40241;52.684;9.758;2022-12-29T05:03:25;99786.09;;;12.55;73.14
5651;BME280;40241;52.684;9.758;2022-12-29T05:05:53;99776.22;;;12.59;73.07
5651;BME280;40241;52.684;9.758;2022-12-29T05:08:19;99779.41;;;12.63;73.18
5651;BME280;40241;52.684;9.758;2022-12-29T05:10:45;99765.31;;;12.67;72.97
5651;BME280;40241;52.684;9.758;2022-12-29T05:13:11;99756.94;;;12.72;73.13
5651;BME280;40241;52.684;9.758;2022-12-29T05:15:36;99783.47;;;12.75;72.96
5651;BME280;40241;52.684;9.758;2022-12-29T05:18:01;99756.81;;;12.78;73.05
5651;BME280;40241;52.684;9.758;2022-12-29T05:20:27;99752.06;;;12.78;72.88
5651;BME280;40241;52.684;9.758;2022-12-29T05:22:52;99752.69;;;12.85;72.71
5651;BME280;40241;52.684;9.758;2022-12-29T05:25:17;99751.66;;;12.88;72.71
5651;BME280;40241;52.684;9.758;2022-12-29T05:27:43;99750.91;;;12.87;72.55
5651;BME280;40241;52.684;9.758;2022-12-29T05:30:08;99747.84;;;12.91;72.67
5651;BME280;40241;52.684;9.758;2022-12-29T05:32:34;99742.19;;;12.96;72.40
5651;BME280;40241;52.684;9.758;2022-12-29T05:35:00;99741.16;;;12.99;72.45
5651;BME280;40241;52.684;9.758;2022-12-29T05:37:25;99753.88;;;13.02;72.53
5651;BME280;40241;52.684;9.758;2022-12-29T05:39:50;99756.38;;;13.06;72.44
5651;BME280;40241;52.684;9.758;2022-12-29T05:42:16;99751.56;;;13.06;72.16
5651;BME280;40241;52.684;9.758;2022-12-29T05:44:41;99755.50;;;13.11;72.18
5651;BME280;40241;52.684;9.758;2022-12-29T05:47:06;99757.22;;;13.14;72.10
5651;BME280;40241;52.684;9.758;2022-12-29T05:49:32;99757.84;;;13.20;72.15
5651;BME280;40241;52.684;9.758;2022-12-29T05:51:57;99752.22;;;13.25;72.09
5651;BME280;40241;52.684;9.758;2022-12-29T05:54:23;99765.16;;;13.30;72.07
5651;BME280;40241;52.684;9.758;2022-12-29T05:56:48;99766.13;;;13.33;71.88
5651;BME280;40241;52.684;9.758;2022-12-29T05:59:13;99757.72;;;13.38;71.60
5651;BME280;40241;52.684;9.758;2022-12-29T06:01:39;99760.91;;;13.42;71.69
5651;BME280;40241;52.684;9.758;2022-12-29T06:04:04;99758.56;;;13.46;71.65
5651;BME280;40241;52.684;9.758;2022-12-29T06:06:29;99754.94;;;13.51;71.54
5651;BME280;40241;52.684;9.758;2022-12-29T06:08:55;99756.41;;;13.52;71.01
5651;BME280;40241;52.684;9.758;2022-12-29T06:11:20;99759.38;;;13.54;70.97
5651;BME280;40241;52.684;9.758;2022-12-29T06:13:45;99762.56;;;13.59;71.50
5651;BME280;40241;52.684;9.758;2022-12-29T06:16:11;99764.06;;;13.60;71.17
5651;BME280;40241;52.684;9.758;2022-12-29T06:18:36;99771.50;;;13.65;71.50
5651;BME280;40241;52.684;9.758;2022-12-29T06:21:03;99772.03;;;13.63;71.48
5651;BME280;40241;52.684;9.758;2022-12-29T06:23:29;99767.88;;;13.57;71.41
5651;BME280;40241;52.684;9.758;2022-12-29T06:25:54;99785.13;;;13.49;71.24
5651;BME280;40241;52.684;9.758;2022-12-29T06:28:20;99791.84;;;13.41;71.75
5651;BME280;40241;52.684;9.758;2022-12-29T06:30:45;99784.28;;;13.28;72.20
5651;BME280;40241;52.684;9.758;2022-12-29T06:33:12;99776.88;;;13.23;72.33
5651;BME280;40241;52.684;9.758;2022-12-29T06:35:37;99776.41;;;13.19;72.35
5651;BME280;40241;52.684;9.758;2022-12-29T06:38:03;99767.72;;;13.15;72.47
5651;BME280;40241;52.684;9.758;2022-12-29T06:40:28;99771.34;;;13.10;72.75
5651;BME280;40241;52.684;9.758;2022-12-29T06:42:53;99770.81;;;13.12;72.54
5651;BME280;40241;52.684;9.758;2022-12-29T06:45:19;99769.84;;;13.09;72.52
5651;BME280;40241;52.684;9.758;2022-12-29T06:47:44;99759.84;;;13.06;72.57
5651;BME280;40241;52.684;9.758;2022-12-29T06:50:09;99764.13;;;13.07;72.79
5651;BME280;40241;52.684;9.758;2022-12-29T06:52:35;99757.31;;;13.08;72.59
5651;BME280;40241;52.684;9.758;2022-12-29T06:55:00;99772.59;;;13.09;72.43
5651;BME280;40241;52.684;9.758;2022-12-29T06:57:26;99796.72;;;13.09;72.52
5651;BME280;40241;52.684;9.758;2022-12-29T06:59:51;99824.66;;;13.05;72.60
5651;BME280;40241;52.684;9.758;2022-12-29T07:02:17;99802.72;;;12.94;72.51
5651;BME280;40241;52.684;9.758;2022-12-29T07:04:44;99812.25;;;12.80;72.29
5651;BME280;40241;52.684;9.758;2022-12-29T07:07:10;99822.75;;;12.68;72.44
5651;BME280;40241;52.684;9.758;2022-12-29T07:09:35;99826.66;;;12.60;72.79
5651;BME280;40241;52.684;9.758;2022-12-29T07:12:01;99841.59;;;12.51;72.73
5651;BME280;40241;52.684;9.758;2022-12-29T07:14:26;99857.38;;;12.51;73.03
5651;BME280;40241;52.684;9.758;2022-12-29T07:16:51;99849.41;;;12.47;73.33
5651;BME280;40241;52.684;9.758;2022-12-29T07:19:17;99852.69;;;12.46;73.23
5651;BME280;40241;52.684;9.758;2022-12-29T07:21:42;99847.69;;;12.44;73.21
5651;BME280;40241;52.684;9.758;2022-12-29T07:24:08;99842.69;;;12.43;73.12
5651;BME280;40241;52.684;9.758;2022-12-29T07:26:34;99841.00;;;12.40;73.11
5651;BME280;40241;52.684;9.758;2022-12-29T07:29:00;99846.28;;;12.38;73.17
5651;BME280;40241;52.684;9.758;2022-12-29T07:31:26;99847.56;;;12.37;73.23
5651;BME280;40241;52.684;9.758;2022-12-29T07:33:51;99854.13;;;12.34;73.15
5651;BME280;40241;52.684;9.758;2022-12-29T07:36:16;99854.13;;;12.34;73.18
5651;BME280;40241;52.684;9.758;2022-12-29T07:38:42;99855.91;;;12.31;73.19
5651;BME280;40241;52.684;9.758;2022-12-29T07:41:08;99858.47;;;12.29;73.04
5651;BME280;40241;52.684;9.758;2022-12-29T07:43:34;99848.47;;;12.26;73.08
5651;BME280;40241;52.684;9.758;2022-12-29T07:45:59;99832.44;;;12.25;73.32
5651;BME280;40241;52.684;9.758;2022-12-29T07:48:24;99829.69;;;12.25;73.23
5651;BME280;40241;52.684;9.758;2022-12-29T07:50:50;99842.50;;;12.22;73.01
5651;BME280;40241;52.684;9.758;2022-12-29T07:53:16;99856.34;;;12.17;73.09
5651;BME280;40241;52.684;9.758;2022-12-29T07:55:41;99856.66;;;12.13;73.11
5651;BME280;40241;52.684;9.758;2022-12-29T07:58:06;99853.47;;;12.09;73.02
5651;BME280;40241;52.684;9.758;2022-12-29T08:00:32;99861.75;;;12.09;73.00
5651;BME280;40241;52.684;9.758;2022-12-29T08:02:58;99875.31;;;12.07;72.98
5651;BME280;40241;52.684;9.758;2022-12-29T08:05:23;99888.34;;;12.07;73.06
5651;BME280;40241;52.684;9.758;2022-12-29T08:07:49;99891.41;;;12.03;72.98
5651;BME280;40241;52.684;9.758;2022-12-29T08:10:14;99883.84;;;12.03;72.99
5651;BME280;40241;52.684;9.758;2022-12-29T08:12:41;99882.38;;;12.02;72.91
5651;BME280;40241;52.684;9.758;2022-12-29T08:15:07;99887.88;;;12.02;72.92
5651;BME280;40241;52.684;9.758;2022-12-29T08:17:33;99890.94;;;11.99;72.93
5651;BME280;40241;52.684;9.758;2022-12-29T08:19:58;99875.13;;;11.99;73.23
5651;BME280;40241;52.684;9.758;2022-12-29T08:22:24;99889.88;;;12.02;72.94
5651;BME280;40241;52.684;9.758;2022-12-29T08:24:49;99882.81;;;12.07;73.13
5651;BME280;40241;52.684;9.758;2022-12-29T08:27:15;99881.56;;;12.08;73.10
5651;BME280;40241;52.684;9.758;2022-12-29T08:29:40;99891.31;;;12.09;72.94
5651;BME280;40241;52.684;9.758;2022-12-29T08:32:06;99889.09;;;12.07;72.91
5651;BME280;40241;52.684;9.758;2022-12-29T08:34:31;99880.59;;;12.05;72.80
5651;BME280;40241;52.684;9.758;2022-12-29T08:36:57;99893.63;;;12.04;72.88
5651;BME280;40241;52.684;9.758;2022-12-29T08:39:22;99891.41;;;12.03;72.74
5651;BME280;40241;52.684;9.758;2022-12-29T08:41:47;99908.91;;;12.06;72.67
5651;BME280;40241;52.684;9.758;2022-12-29T08:44:13;99900.63;;;12.06;72.98
5651;BME280;40241;52.684;9.758;2022-12-29T08:46:38;99911.41;;;12.03;72.76
5651;BME280;40241;52.684;9.758;2022-12-29T08:49:04;99903.22;;;11.98;72.47
5651;BME280;40241;52.684;9.758;2022-12-29T08:51:29;99918.22;;;12.02;72.64
5651;BME280;40241;52.684;9.758;2022-12-29T08:53:55;99908.66;;;12.03;72.71
5651;BME280;40241;52.684;9.758;2022-12-29T08:56:20;99907.41;;;12.04;72.46
5651;BME280;40241;52.684;9.758;2022-12-29T08:58:45;99908.91;;;12.06;72.41
5651;BME280;40241;52.684;9.758;2022-12-29T09:01:11;99914.66;;;12.08;72.36
5651;BME280;40241;52.684;9.758;2022-12-29T09:03:36;99906.88;;;12.06;72.42
5651;BME280;40241;52.684;9.758;2022-12-29T09:06:02;99902.56;;;12.11;72.19
5651;BME280;40241;52.684;9.758;2022-12-29T09:08:27;99911.59;;;12.11;72.57
5651;BME280;40241;52.684;9.758;2022-12-29T09:10:53;99897.06;;;12.11;72.27
5651;BME280;40241;52.684;9.758;2022-12-29T09:13:18;99916.56;;;12.13;72.24
5651;BME280;40241;52.684;9.758;2022-12-29T09:15:44;99905.03;;;12.14;72.33
5651;BME280;40241;52.684;9.758;2022-12-29T09:18:10;99909.28;;;12.15;72.00
5651;BME280;40241;52.684;9.758;2022-12-29T09:20:36;99913.53;;;12.16;72.22
5651;BME280;40241;52.684;9.758;2022-12-29T09:23:02;99907.78;;;12.14;72.09
5651;BME280;40241;52.684;9.758;2022-12-29T09:25:28;99908.25;;;12.18;72.20
5651;BME280;40241;52.684;9.758;2022-12-29T09:27:53;99912.69;;;12.21;72.09
5651;BME280;40241;52.684;9.758;2022-12-29T09:30:21;99908.69;;;12.22;71.76
5651;BME280;40241;52.684;9.758;2022-12-29T09:32:47;99911.88;;;12.26;71.97
5651;BME280;40241;52.684;9.758;2022-12-29T09:35:13;99915.63;;;12.29;71.79
5651;BME280;40241;52.684;9.758;2022-12-29T09:37:39;99917.34;;;12.32;71.71
5651;BME280;40241;52.684;9.758;2022-12-29T09:40:06;99904.00;;;12.36;71.81
5651;BME280;40241;52.684;9.758;2022-12-29T09:45:42;99912.41;;;12.43;71.59
5651;BME280;40241;52.684;9.758;2022-12-29T09:48:16;99900.03;;;12.50;71.14
5651;BME280;40241;52.684;9.758;2022-12-29T09:50:47;99901.97;;;12.55;71.42
5651;BME280;40241;52.684;9.758;2022-12-29T09:53:35;99900.19;;;12.57;69.81
5651;BME280;40241;52.684;9.758;2022-12-29T09:56:03;99903.69;;;12.58;71.31
5651;BME280;40241;52.684;9.758;2022-12-29T09:58:32;99907.59;;;12.62;71.03
5651;BME280;40241;52.684;9.758;2022-12-29T10:01:04;99898.81;;;12.64;70.51
5651;BME280;40241;52.684;9.758;2022-12-29T10:03:46;99901.06;;;12.65;69.83
5651;BME280;40241;52.684;9.758;2022-12-29T10:14:02;99886.97;;;12.82;69.68
5651;BME280;40241;52.684;9.758;2022-12-29T10:19:30;99888.84;;;12.93;69.03
5651;BME280;40241;52.684;9.758;2022-12-29T10:25:12;99881.97;;;12.99;69.03
5651;BME280;40241;52.684;9.758;2022-12-29T10:27:40;99879.91;;;13.00;69.57
5651;BME280;40241;52.684;9.758;2022-12-29T10:30:12;99886.63;;;13.04;69.20
5651;BME280;40241;52.684;9.758;2022-12-29T10:35:16;99884.09;;;13.06;67.84
5651;BME280;40241;52.684;9.758;2022-12-29T10:37:56;99882.31;;;13.09;68.08
5651;BME280;40241;52.684;9.758;2022-12-29T10:40:32;99877.00;;;13.11;67.95
5651;BME280;40241;52.684;9.758;2022-12-29T10:43:07;99887.53;;;13.12;68.32
5651;BME280;40241;52.684;9.758;2022-12-29T10:45:38;99878.19;;;13.15;68.24
5651;BME280;40241;52.684;9.758;2022-12-29T10:48:06;99892.41;;;13.19;67.82
5651;BME280;40241;52.684;9.758;2022-12-29T10:50:34;99881.63;;;13.21;67.70
5651;BME280;40241;52.684;9.758;2022-12-29T10:53:02;99886.59;;;13.23;67.56
5651;BME280;40241;52.684;9.758;2022-12-29T10:55:35;99877.47;;;13.28;66.00
5651;BME280;40241;52.684;9.758;2022-12-29T10:58:06;99889.16;;;13.34;67.37
5651;BME280;40241;52.684;9.758;2022-12-29T11:00:35;99887.78;;;13.40;67.42
5651;BME280;40241;52.684;9.758;2022-12-29T11:03:25;99889.69;;;13.45;65.21
5651;BME280;40241;52.684;9.758;2022-12-29T11:06:03;99880.78;;;13.52;66.78
5651;BME280;40241;52.684;9.758;2022-12-29T11:08:41;99873.88;;;13.59;65.69
5651;BME280;40241;52.684;9.758;2022-12-29T11:11:10;99878.34;;;13.62;66.64
5651;BME280;40241;52.684;9.758;2022-12-29T11:13:57;99873.56;;;13.63;63.03
5651;BME280;40241;52.684;9.758;2022-12-29T11:16:31;99883.53;;;13.66;65.53
5651;BME280;40241;52.684;9.758;2022-12-29T11:18:57;99873.22;;;13.66;65.66
5651;BME280;40241;52.684;9.758;2022-12-29T11:21:37;99883.53;;;13.66;62.34
5651;BME280;40241;52.684;9.758;2022-12-29T11:24:23;99880.25;;;13.67;62.13
5651;BME280;40241;52.684;9.758;2022-12-29T11:26:51;99878.44;;;13.70;65.03
5651;BME280;40241;52.684;9.758;2022-12-29T11:29:24;99876.63;;;13.72;64.72
5651;BME280;40241;52.684;9.758;2022-12-29T11:31:52;99877.03;;;13.76;65.27
5651;BME280;40241;52.684;9.758;2022-12-29T11:34:30;99880.25;;;13.80;64.05
5651;BME280;40241;52.684;9.758;2022-12-29T11:37:01;99896.72;;;13.86;64.85
5651;BME280;40241;52.684;9.758;2022-12-29T11:39:33;99889.59;;;13.90;64.43
5651;BME280;40241;52.684;9.758;2022-12-29T11:42:01;99895.66;;;13.89;64.21
5651;BME280;40241;52.684;9.758;2022-12-29T11:44:31;99893.09;;;13.91;64.08
5651;BME280;40241;52.684;9.758;2022-12-29T11:46:58;99894.47;;;13.97;64.57
5651;BME280;40241;52.684;9.758;2022-12-29T11:49:24;99913.63;;;14.08;64.58
5651;BME280;40241;52.684;9.758;2022-12-29T11:51:52;99919.44;;;14.18;63.64
5651;BME280;40241;52.684;9.758;2022-12-29T11:54:31;99918.56;;;14.23;59.95
5651;BME280;40241;52.684;9.758;2022-12-29T11:57:14;99921.00;;;14.26;62.42
5651;BME280;40241;52.684;9.758;2022-12-29T12:00:09;99901.34;;;14.30;63.15
5651;BME280;40241;52.684;9.758;2022-12-29T12:10:44;99916.78;;;14.25;61.85
5651;BME280;40241;52.684;9.758;2022-12-29T12:13:25;99917.31;;;14.24;61.09
5651;BME280;40241;52.684;9.758;2022-12-29T12:16:02;99911.34;;;14.20;62.83
5651;BME280;40241;52.684;9.758;2022-12-29T12:21:23;99922.19;;;14.18;63.39
5651;BME280;40241;52.684;9.758;2022-12-29T12:24:20;99921.56;;;14.12;60.05
5651;BME280;40241;52.684;9.758;2022-12-29T12:27:18;99924.34;;;14.12;62.64
5651;BME280;40241;52.684;9.758;2022-12-29T12:35:13;99922.75;;;14.03;63.18
5651;BME280;40241;52.684;9.758;2022-12-29T12:37:52;99927.75;;;14.05;62.54
5651;BME280;40241;52.684;9.758;2022-12-29T12:40:43;99927.44;;;14.08;61.17
5651;BME280;40241;52.684;9.758;2022-12-29T12:46:06;99932.97;;;14.08;63.29
5651;BME280;40241;52.684;9.758;2022-12-29T12:51:44;99936.25;;;14.07;61.07
5651;BME280;40241;52.684;9.758;2022-12-29T12:54:35;99925.72;;;14.05;60.34
5651;BME280;40241;52.684;9.758;2022-12-29T13:00:14;99941.06;;;14.06;61.47
5651;BME280;40241;52.684;9.758;2022-12-29T13:03:13;99935.28;;;14.04;59.72
5651;BME280;40241;52.684;9.758;2022-12-29T13:24:15;99955.63;;;14.07;62.71
5651;BME280;40241;52.684;9.758;2022-12-29T13:26:49;99954.16;;;14.06;61.95
5651;BME280;40241;52.684;9.758;2022-12-29T13:37:11;99970.63;;;14.11;61.62
5651;BME280;40241;52.684;9.758;2022-12-29T13:39:42;99979.66;;;14.12;62.44
5651;BME280;40241;52.684;9.758;2022-12-29T13:42:09;99974.34;;;14.14;62.70
5651;BME280;40241;52.684;9.758;2022-12-29T13:44:41;99986.69;;;14.13;62.17
5651;BME280;40241;52.684;9.758;2022-12-29T13:47:32;99990.94;;;14.14;60.79
5651;BME280;40241;52.684;9.758;2022-12-29T13:50:01;99994.03;;;14.10;62.58
5651;BME280;40241;52.684;9.758;2022-12-29T13:55:35;100008.50;;;14.03;61.67
5651;BME280;40241;52.684;9.758;2022-12-29T14:08:50;100071.69;;;13.99;62.78
5651;BME280;40241;52.684;9.758;2022-12-29T14:11:18;100060.69;;;13.94;62.66
5651;BME280;40241;52.684;9.758;2022-12-29T14:13:46;100065.59;;;13.88;62.86
5651;BME280;40241;52.684;9.758;2022-12-29T14:16:33;100066.63;;;13.85;62.11
5651;BME280;40241;52.684;9.758;2022-12-29T14:19:15;100085.06;;;13.82;61.90
5651;BME280;40241;52.684;9.758;2022-12-29T14:21:54;100080.25;;;13.83;62.82
5651;BME280;40241;52.684;9.758;2022-12-29T14:24:57;100078.03;;;13.81;62.80
5651;BME280;40241;52.684;9.758;2022-12-29T14:29:54;100088.66;;;13.77;63.57
5651;BME280;40241;52.684;9.758;2022-12-29T14:37:30;100091.19;;;13.75;62.98
5651;BME280;40241;52.684;9.758;2022-12-29T14:40:28;100095.53;;;13.71;62.27
5651;BME280;40241;52.684;9.758;2022-12-29T14:42:55;100105.31;;;13.72;63.37
5651;BME280;40241;52.684;9.758;2022-12-29T14:45:30;100106.59;;;13.71;62.68
5651;BME280;40241;52.684;9.758;2022-12-29T14:47:58;100118.91;;;13.70;63.18
5651;BME280;40241;52.684;9.758;2022-12-29T14:50:35;100116.69;;;13.68;62.77
5651;BME280;40241;52.684;9.758;2022-12-29T14:53:04;100118.19;;;13.69;63.29
5651;BME280;40241;52.684;9.758;2022-12-29T14:55:42;100116.16;;;13.70;62.53
5651;BME280;40241;52.684;9.758;2022-12-29T15:00:45;100116.78;;;13.63;62.95
5651;BME280;40241;52.684;9.758;2022-12-29T15:03:23;100124.31;;;13.62;62.12
5651;BME280;40241;52.684;9.758;2022-12-29T15:08:47;100125.91;;;13.58;61.03
5651;BME280;40241;52.684;9.758;2022-12-29T15:11:23;100133.66;;;13.59;62.63
5651;BME280;40241;52.684;9.758;2022-12-29T15:13:50;100144.44;;;13.63;63.01
5651;BME280;40241;52.684;9.758;2022-12-29T15:18:48;100142.59;;;13.65;62.81
5651;BME280;40241;52.684;9.758;2022-12-29T15:21:15;100145.63;;;13.67;63.04
5651;BME280;40241;52.684;9.758;2022-12-29T15:23:43;100153.38;;;13.69;63.14
5651;BME280;40241;52.684;9.758;2022-12-29T15:26:09;100150.06;;;13.70;62.98